createdAt,value
2019-03-09T00:00:46.506Z,1032.27
2019-03-09T00:01:47.127Z,1032.31
2019-03-09T00:02:47.699Z,1032.30
2019-03-09T00:03:48.272Z,1032.32
2019-03-09T00:04:49.106Z,1032.36
2019-03-09T00:05:49.736Z,1032.33
2019-03-09T00:06:50.358Z,1032.33
2019-03-09T00:07:50.925Z,1032.42
2019-03-09T00:08:51.496Z,1032.47
2019-03-09T00:09:52.066Z,1032.35
2019-03-09T00:10:52.637Z,1032.46
2019-03-09T00:11:53.209Z,1032.39
2019-03-09T00:12:53.781Z,1032.47
2019-03-09T00:13:54.565Z,1032.51
2019-03-09T00:14:55.137Z,1032.51
2019-03-09T00:15:55.711Z,1032.46
2019-03-09T00:16:56.333Z,1032.57
2019-03-09T00:17:56.957Z,1032.56
2019-03-09T00:18:57.533Z,1032.57
2019-03-09T00:19:58.155Z,1032.51
2019-03-09T00:20:58.728Z,1032.58
2019-03-09T00:21:59.297Z,1032.56
2019-03-09T00:23:00.038Z,1032.50
2019-03-09T00:24:00.608Z,1032.47
2019-03-09T00:25:01.181Z,1032.47
2019-03-09T00:26:01.804Z,1032.46
2019-03-09T00:27:02.428Z,1032.46
2019-03-09T00:28:03.003Z,1032.43
2019-03-09T00:29:03.570Z,1032.49
2019-03-09T00:30:04.145Z,1032.41
2019-03-09T00:31:04.815Z,1032.58
2019-03-09T00:32:05.548Z,1032.51
2019-03-09T00:33:06.169Z,1032.49
2019-03-09T00:34:06.841Z,1032.49
2019-03-09T00:35:07.463Z,1032.55
2019-03-09T00:36:08.043Z,1032.52
2019-03-09T00:37:08.609Z,1032.49
2019-03-09T00:38:09.183Z,1032.53
2019-03-09T00:39:09.756Z,1032.45
2019-03-09T00:40:10.331Z,1032.50
2019-03-09T00:41:11.048Z,1032.45
2019-03-09T00:42:11.621Z,1032.47
2019-03-09T00:43:12.194Z,1032.50
2019-03-09T00:44:12.770Z,1032.47
2019-03-09T00:45:13.344Z,1032.53
2019-03-09T00:46:14.120Z,1032.47
2019-03-09T00:47:14.688Z,1032.50
2019-03-09T00:48:15.262Z,1032.50
2019-03-09T00:49:15.882Z,1032.58
2019-03-09T00:50:16.455Z,1032.52
2019-03-09T00:51:17.029Z,1032.55
2019-03-09T00:52:17.606Z,1032.55
2019-03-09T00:53:18.226Z,1032.58
2019-03-09T00:54:18.800Z,1032.64
2019-03-09T00:55:19.375Z,1032.52
2019-03-09T00:56:19.989Z,1032.58
2019-03-09T00:57:20.711Z,1032.60
2019-03-09T00:58:21.283Z,1032.53
2019-03-09T00:59:21.853Z,1032.58
2019-03-09T01:00:22.422Z,1032.51
2019-03-09T01:01:23.045Z,1032.51
2019-03-09T01:02:23.614Z,1032.53
2019-03-09T01:03:24.184Z,1032.49
2019-03-09T01:04:24.755Z,1032.49
2019-03-09T01:05:25.326Z,1032.57
2019-03-09T01:06:25.898Z,1032.54
2019-03-09T01:07:26.479Z,1032.48
2019-03-09T01:08:27.093Z,1032.53
2019-03-09T01:09:27.667Z,1032.52
2019-03-09T01:10:28.236Z,1032.54
2019-03-09T01:11:28.858Z,1032.67
2019-03-09T01:12:29.478Z,1032.56
2019-03-09T01:13:30.050Z,1032.62
2019-03-09T01:14:30.623Z,1032.58
2019-03-09T01:15:31.238Z,1032.60
2019-03-09T01:16:31.811Z,1032.60
2019-03-09T01:17:32.383Z,1032.66
2019-03-09T01:18:32.954Z,1032.60
2019-03-09T01:19:33.528Z,1032.64
2019-03-09T01:20:34.150Z,1032.64
2019-03-09T01:21:34.720Z,1032.58
2019-03-09T01:22:35.358Z,1032.57
2019-03-09T01:23:35.963Z,1032.58
2019-03-09T01:24:36.545Z,1032.63
2019-03-09T01:25:37.155Z,1032.54
2019-03-09T01:26:37.770Z,1032.59
2019-03-09T01:27:38.343Z,1032.68
2019-03-09T01:28:38.964Z,1032.61
2019-03-09T01:29:39.538Z,1032.61
2019-03-09T01:30:40.111Z,1032.61
2019-03-09T01:31:40.686Z,1032.63
2019-03-09T01:32:41.256Z,1032.62
2019-03-09T01:33:41.828Z,1032.71
2019-03-09T01:34:42.400Z,1032.65
2019-03-09T01:35:42.982Z,1032.64
2019-03-09T01:36:43.548Z,1032.66
2019-03-09T01:37:44.120Z,1032.66
2019-03-09T01:38:44.691Z,1032.79
2019-03-09T01:39:45.265Z,1032.67
2019-03-09T01:40:45.888Z,1032.79
2019-03-09T01:41:46.508Z,1032.76
2019-03-09T01:42:47.080Z,1032.78
2019-03-09T01:43:47.653Z,1032.77
2019-03-09T01:44:48.227Z,1032.77
2019-03-09T01:45:48.799Z,1032.72
2019-03-09T01:46:49.421Z,1032.80
2019-03-09T01:47:50.048Z,1032.77
2019-03-09T01:48:50.656Z,1032.77
2019-03-09T01:49:51.227Z,1032.74
2019-03-09T01:50:51.799Z,1032.81
2019-03-09T01:51:52.370Z,1032.83
2019-03-09T01:52:52.942Z,1032.80
2019-03-09T01:53:53.519Z,1032.75
2019-03-09T01:54:54.130Z,1032.86
2019-03-09T01:55:54.705Z,1032.93
2019-03-09T01:56:55.318Z,1032.93
2019-03-09T01:57:55.940Z,1032.90
2019-03-09T01:58:56.517Z,1032.90
2019-03-09T01:59:57.096Z,1032.87
2019-03-09T02:00:57.704Z,1032.94
2019-03-09T02:01:58.276Z,1032.95
2019-03-09T02:02:58.848Z,1032.83
2019-03-09T02:03:59.423Z,1032.88
2019-03-09T02:04:59.996Z,1032.85
2019-03-09T02:06:00.565Z,1032.98
2019-03-09T02:07:01.137Z,1032.96
2019-03-09T02:08:01.860Z,1032.86
2019-03-09T02:09:02.481Z,1032.80
2019-03-09T02:10:03.051Z,1032.83
2019-03-09T02:11:03.625Z,1032.84
2019-03-09T02:12:04.196Z,1032.89
2019-03-09T02:13:04.816Z,1032.82
2019-03-09T02:14:05.392Z,1032.76
2019-03-09T02:15:05.962Z,1032.82
2019-03-09T02:16:06.534Z,1032.77
2019-03-09T02:17:07.112Z,1032.80
2019-03-09T02:18:07.736Z,1032.72
2019-03-09T02:19:08.306Z,1032.77
2019-03-09T02:20:08.877Z,1032.77
2019-03-09T02:21:09.451Z,1032.72
2019-03-09T02:22:10.021Z,1032.76
2019-03-09T02:23:10.646Z,1032.72
2019-03-09T02:24:11.214Z,1032.72
2019-03-09T02:25:11.797Z,1032.77
2019-03-09T02:26:12.405Z,1032.69
2019-03-09T02:27:12.978Z,1032.71
2019-03-09T02:28:13.552Z,1032.64
2019-03-09T02:29:14.187Z,1032.72
2019-03-09T02:30:14.797Z,1032.68
2019-03-09T02:31:15.464Z,1032.55
2019-03-09T02:32:16.041Z,1032.64
2019-03-09T02:33:16.647Z,1032.66
2019-03-09T02:34:17.221Z,1032.71
2019-03-09T02:35:17.797Z,1032.69
2019-03-09T02:36:18.419Z,1032.55
2019-03-09T02:37:18.987Z,1032.64
2019-03-09T02:38:19.556Z,1032.66
2019-03-09T02:39:20.131Z,1032.64
2019-03-09T02:40:22.965Z,1032.68
2019-03-09T02:41:21.353Z,1032.57
2019-03-09T02:42:21.986Z,1032.60
2019-03-09T02:43:22.547Z,1032.63
2019-03-09T02:44:23.116Z,1032.58
2019-03-09T02:45:23.890Z,1032.66
2019-03-09T02:46:24.462Z,1032.60
2019-03-09T02:47:25.034Z,1032.57
2019-03-09T02:48:25.657Z,1032.59
2019-03-09T02:49:26.250Z,1032.60
2019-03-09T02:50:26.803Z,1032.58
2019-03-09T02:51:27.372Z,1032.58
2019-03-09T02:52:27.942Z,1032.51
2019-03-09T02:53:28.518Z,1032.52
2019-03-09T02:54:29.089Z,1032.59
2019-03-09T02:55:29.755Z,1032.56
2019-03-09T02:56:30.328Z,1032.58
2019-03-09T02:57:30.901Z,1032.59
2019-03-09T02:58:31.474Z,1032.49
2019-03-09T02:59:32.049Z,1032.52
2019-03-09T03:00:32.632Z,1032.56
2019-03-09T03:01:33.242Z,1032.48
2019-03-09T03:02:33.813Z,1032.46
2019-03-09T03:03:34.385Z,1032.51
2019-03-09T03:04:34.959Z,1032.42
2019-03-09T03:05:35.576Z,1032.43
2019-03-09T03:06:36.234Z,1032.41
2019-03-09T03:07:36.813Z,1032.49
2019-03-09T03:08:37.472Z,1032.42
2019-03-09T03:09:38.042Z,1032.45
2019-03-09T03:10:38.615Z,1032.38
2019-03-09T03:11:39.187Z,1032.44
2019-03-09T03:12:39.802Z,1032.38
2019-03-09T03:13:40.375Z,1032.34
2019-03-09T03:14:41.039Z,1032.45
2019-03-09T03:15:41.611Z,1032.32
2019-03-09T03:16:42.182Z,1032.45
2019-03-09T03:17:42.769Z,1032.46
2019-03-09T03:18:43.421Z,1032.37
2019-03-09T03:19:43.986Z,1032.41
2019-03-09T03:20:44.557Z,1032.37
2019-03-09T03:21:45.502Z,1032.30
2019-03-09T03:22:46.165Z,1032.43
2019-03-09T03:23:46.743Z,1032.30
2019-03-09T03:24:47.313Z,1032.29
2019-03-09T03:25:47.973Z,1032.35
2019-03-09T03:26:48.543Z,1032.35
2019-03-09T03:27:49.164Z,1032.33
2019-03-09T03:28:49.737Z,1032.32
2019-03-09T03:29:50.313Z,1032.30
2019-03-09T03:30:50.965Z,1032.30
2019-03-09T03:31:51.514Z,1032.30
2019-03-09T03:32:52.103Z,1032.29
2019-03-09T03:33:52.714Z,1032.24
2019-03-09T03:34:53.288Z,1032.26
2019-03-09T03:35:53.860Z,1032.26
2019-03-09T03:36:54.432Z,1032.26
2019-03-09T03:37:55.055Z,1032.32
2019-03-09T03:38:55.626Z,1032.23
2019-03-09T03:39:56.203Z,1032.32
2019-03-09T03:40:56.867Z,1032.28
2019-03-09T03:41:57.438Z,1032.20
2019-03-09T03:42:58.060Z,1032.27
2019-03-09T03:43:58.672Z,1032.25
2019-03-09T03:44:59.243Z,1032.26
2019-03-09T03:45:59.817Z,1032.28
2019-03-09T03:47:00.499Z,1032.27
2019-03-09T03:48:01.049Z,1032.25
2019-03-09T03:49:03.735Z,1032.24
2019-03-09T03:50:03.198Z,1032.34
2019-03-09T03:51:03.758Z,1032.28
2019-03-09T03:52:04.328Z,1032.28
2019-03-09T03:53:04.899Z,1032.25
2019-03-09T03:54:05.526Z,1032.23
2019-03-09T03:55:06.155Z,1032.32
2019-03-09T03:56:06.727Z,1032.30
2019-03-09T03:57:07.343Z,1032.26
2019-03-09T03:58:07.964Z,1032.30
2019-03-09T03:59:08.540Z,1032.31
2019-03-09T04:00:09.157Z,1032.30
2019-03-09T04:01:09.724Z,1032.26
2019-03-09T04:02:10.296Z,1032.29
2019-03-09T04:03:10.870Z,1032.28
2019-03-09T04:04:11.444Z,1032.33
2019-03-09T04:05:12.017Z,1032.38
2019-03-09T04:06:12.596Z,1032.30
2019-03-09T04:07:13.271Z,1032.38
2019-03-09T04:08:13.883Z,1032.40
2019-03-09T04:09:14.453Z,1032.39
2019-03-09T04:10:15.029Z,1032.42
2019-03-09T04:11:15.646Z,1032.44
2019-03-09T04:12:16.216Z,1032.47
2019-03-09T04:13:16.790Z,1032.43
2019-03-09T04:14:17.362Z,1032.47
2019-03-09T04:15:17.981Z,1032.45
2019-03-09T04:16:18.554Z,1032.45
2019-03-09T04:17:19.125Z,1032.43
2019-03-09T04:18:19.697Z,1032.41
2019-03-09T04:19:20.269Z,1032.33
2019-03-09T04:20:20.863Z,1032.47
2019-03-09T04:21:21.418Z,1032.42
2019-03-09T04:22:21.986Z,1032.48
2019-03-09T04:23:22.561Z,1032.41
2019-03-09T04:24:23.128Z,1032.41
2019-03-09T04:25:23.751Z,1032.37
2019-03-09T04:26:24.323Z,1032.39
2019-03-09T04:27:24.893Z,1032.40
2019-03-09T04:28:25.614Z,1032.45
2019-03-09T04:29:26.192Z,1032.44
2019-03-09T04:30:26.758Z,1032.46
2019-03-09T04:31:27.378Z,1032.33
2019-03-09T04:32:27.949Z,1032.45
2019-03-09T04:33:28.520Z,1032.45
2019-03-09T04:34:29.090Z,1032.42
2019-03-09T04:35:29.662Z,1032.44
2019-03-09T04:36:30.310Z,1032.40
2019-03-09T04:37:30.898Z,1032.32
2019-03-09T04:38:31.467Z,1032.35
2019-03-09T04:39:32.042Z,1032.37
2019-03-09T04:40:32.615Z,1032.39
2019-03-09T04:41:33.186Z,1032.41
2019-03-09T04:42:33.763Z,1032.37
2019-03-09T04:43:34.379Z,1032.35
2019-03-09T04:44:34.950Z,1032.49
2019-03-09T04:45:35.523Z,1032.45
2019-03-09T04:46:36.146Z,1032.45
2019-03-09T04:47:36.716Z,1032.38
2019-03-09T04:48:37.287Z,1032.40
2019-03-09T04:49:37.858Z,1032.37
2019-03-09T04:50:38.497Z,1032.34
2019-03-09T04:51:39.054Z,1032.46
2019-03-09T04:52:39.627Z,1032.44
2019-03-09T04:53:40.199Z,1032.41
2019-03-09T04:54:40.773Z,1032.49
2019-03-09T04:55:41.344Z,1032.49
2019-03-09T04:56:41.919Z,1032.51
2019-03-09T04:57:42.488Z,1032.51
2019-03-09T04:58:43.061Z,1032.46
2019-03-09T04:59:43.631Z,1032.41
2019-03-09T05:00:44.204Z,1032.49
2019-03-09T05:01:44.778Z,1032.49
2019-03-09T05:02:45.543Z,1032.49
2019-03-09T05:03:46.156Z,1032.54
2019-03-09T05:04:46.727Z,1032.56
2019-03-09T05:05:47.348Z,1032.55
2019-03-09T05:06:47.972Z,1032.59
2019-03-09T05:07:48.541Z,1032.61
2019-03-09T05:08:49.130Z,1032.59
2019-03-09T05:09:49.734Z,1032.61
2019-03-09T05:10:50.304Z,1032.62
2019-03-09T05:11:50.875Z,1032.59
2019-03-09T05:12:51.447Z,1032.67
2019-03-09T05:13:52.020Z,1032.69
2019-03-09T05:14:52.592Z,1032.66
2019-03-09T05:15:53.161Z,1032.71
2019-03-09T05:16:53.733Z,1032.70
2019-03-09T05:17:54.305Z,1032.70
2019-03-09T05:18:54.877Z,1032.70
2019-03-09T05:19:55.449Z,1032.70
2019-03-09T05:20:56.020Z,1032.76
2019-03-09T05:21:56.591Z,1032.78
2019-03-09T05:22:57.162Z,1032.79
2019-03-09T05:23:57.733Z,1032.83
2019-03-09T05:24:58.306Z,1032.82
2019-03-09T05:25:58.878Z,1032.90
2019-03-09T05:26:59.451Z,1032.87
2019-03-09T05:28:00.021Z,1032.88
2019-03-09T05:29:00.594Z,1032.83
2019-03-09T05:30:01.166Z,1032.80
2019-03-09T05:31:01.736Z,1032.88
2019-03-09T05:32:02.309Z,1032.95
2019-03-09T05:33:02.880Z,1032.84
2019-03-09T05:34:03.451Z,1032.85
2019-03-09T05:35:04.024Z,1032.94
2019-03-09T05:36:04.594Z,1032.98
2019-03-09T05:37:05.163Z,1032.94
2019-03-09T05:38:05.734Z,1032.98
2019-03-09T05:39:06.353Z,1032.98
2019-03-09T05:40:06.974Z,1032.91
2019-03-09T05:41:07.547Z,1032.99
2019-03-09T05:42:08.119Z,1033.02
2019-03-09T05:43:08.739Z,1032.96
2019-03-09T05:44:09.312Z,1033.00
2019-03-09T05:45:09.885Z,1032.96
2019-03-09T05:46:10.454Z,1033.01
2019-03-09T05:47:11.025Z,1033.06
2019-03-09T05:48:11.598Z,1033.07
2019-03-09T05:49:12.168Z,1033.13
2019-03-09T05:50:12.792Z,1033.06
2019-03-09T05:51:13.362Z,1033.02
2019-03-09T05:52:13.932Z,1033.12
2019-03-09T05:53:14.507Z,1033.10
2019-03-09T05:54:15.077Z,1033.10
2019-03-09T05:55:15.647Z,1033.14
2019-03-09T05:56:16.218Z,1033.10
2019-03-09T05:57:16.838Z,1033.09
2019-03-09T05:58:17.414Z,1033.10
2019-03-09T05:59:17.988Z,1033.15
2019-03-09T06:00:18.560Z,1033.15
2019-03-09T06:01:19.135Z,1033.21
2019-03-09T06:02:19.705Z,1033.29
2019-03-09T06:03:20.278Z,1033.21
2019-03-09T06:04:20.899Z,1033.25
2019-03-09T06:05:21.525Z,1033.19
2019-03-09T06:06:22.137Z,1033.28
2019-03-09T06:07:22.710Z,1033.29
2019-03-09T06:08:23.280Z,1033.35
2019-03-09T06:09:23.850Z,1033.34
2019-03-09T06:10:24.422Z,1033.34
2019-03-09T06:11:24.995Z,1033.34
2019-03-09T06:12:25.566Z,1033.33
2019-03-09T06:13:26.137Z,1033.41
2019-03-09T06:14:26.710Z,1033.36
2019-03-09T06:15:27.329Z,1033.38
2019-03-09T06:16:27.898Z,1033.38
2019-03-09T06:17:28.472Z,1033.37
2019-03-09T06:18:29.043Z,1033.41
2019-03-09T06:19:29.611Z,1033.42
2019-03-09T06:20:30.183Z,1033.42
2019-03-09T06:21:30.764Z,1033.45
2019-03-09T06:22:31.327Z,1033.42
2019-03-09T06:23:31.898Z,1033.46
2019-03-09T06:24:32.521Z,1033.44
2019-03-09T06:25:33.145Z,1033.42
2019-03-09T06:26:33.765Z,1033.48
2019-03-09T06:27:34.339Z,1033.48
2019-03-09T06:28:35.003Z,1033.53
2019-03-09T06:29:35.617Z,1033.57
2019-03-09T06:30:36.241Z,1033.58
2019-03-09T06:31:36.862Z,1033.69
2019-03-09T06:32:37.482Z,1033.61
2019-03-09T06:33:38.107Z,1033.66
2019-03-09T06:34:38.676Z,1033.57
2019-03-09T06:35:39.248Z,1033.57
2019-03-09T06:36:39.920Z,1033.55
2019-03-09T06:37:40.489Z,1033.55
2019-03-09T06:38:41.063Z,1033.60
2019-03-09T06:39:41.734Z,1033.50
2019-03-09T06:40:42.307Z,1033.54
2019-03-09T06:41:42.879Z,1033.56
2019-03-09T06:42:43.450Z,1033.50
2019-03-09T06:43:44.025Z,1033.61
2019-03-09T06:44:44.597Z,1033.53
2019-03-09T06:45:45.169Z,1033.63
2019-03-09T06:46:45.741Z,1033.61
2019-03-09T06:47:46.356Z,1033.68
2019-03-09T06:48:46.966Z,1033.63
2019-03-09T06:49:47.537Z,1033.61
2019-03-09T06:50:48.108Z,1033.65
2019-03-09T06:51:48.682Z,1033.65
2019-03-09T06:52:49.296Z,1033.67
2019-03-09T06:53:49.868Z,1033.76
2019-03-09T06:54:50.439Z,1033.69
2019-03-09T06:55:51.014Z,1033.76
2019-03-09T06:56:51.588Z,1033.70
2019-03-09T06:57:52.208Z,1033.74
2019-03-09T06:58:52.779Z,1033.77
2019-03-09T06:59:53.349Z,1033.76
2019-03-09T07:00:53.922Z,1033.76
2019-03-09T07:01:54.494Z,1033.80
2019-03-09T07:02:55.062Z,1033.87
2019-03-09T07:03:55.784Z,1033.86
2019-03-09T07:04:56.356Z,1033.85
2019-03-09T07:05:56.928Z,1033.82
2019-03-09T07:06:57.562Z,1033.88
2019-03-09T07:07:58.272Z,1033.93
2019-03-09T07:08:58.848Z,1033.92
2019-03-09T07:09:59.474Z,1033.94
2019-03-09T07:11:00.040Z,1033.92
2019-03-09T07:12:00.610Z,1033.94
2019-03-09T07:13:01.180Z,1033.94
2019-03-09T07:14:01.752Z,1033.92
2019-03-09T07:15:02.371Z,1033.92
2019-03-09T07:16:02.944Z,1033.90
2019-03-09T07:17:03.516Z,1033.93
2019-03-09T07:18:04.088Z,1033.97
2019-03-09T07:19:04.664Z,1033.90
2019-03-09T07:20:12.754Z,1033.97
2019-03-09T07:21:06.839Z,1033.99
2019-03-09T07:22:07.407Z,1033.95
2019-03-09T07:23:08.026Z,1034.03
2019-03-09T07:24:08.646Z,1033.96
2019-03-09T07:25:09.421Z,1033.98
2019-03-09T07:26:09.993Z,1033.94
2019-03-09T07:27:10.603Z,1034.00
2019-03-09T07:28:11.182Z,1033.89
2019-03-09T07:29:11.754Z,1033.94
2019-03-09T07:30:12.377Z,1033.92
2019-03-09T07:31:12.950Z,1033.94
2019-03-09T07:32:13.522Z,1033.96
2019-03-09T07:33:14.095Z,1034.01
2019-03-09T07:34:14.669Z,1034.01
2019-03-09T07:35:15.241Z,1033.97
2019-03-09T07:36:15.812Z,1034.03
2019-03-09T07:37:16.384Z,1034.07
2019-03-09T07:38:17.025Z,1033.98
2019-03-09T07:39:17.577Z,1034.04
2019-03-09T07:40:18.150Z,1034.04
2019-03-09T07:41:18.722Z,1034.15
2019-03-09T07:42:19.296Z,1034.07
2019-03-09T07:43:19.866Z,1034.13
2019-03-09T07:44:20.489Z,1034.07
2019-03-09T07:45:21.057Z,1034.11
2019-03-09T07:46:21.629Z,1034.11
2019-03-09T07:47:22.250Z,1034.12
2019-03-09T07:48:22.820Z,1034.06
2019-03-09T07:49:23.391Z,1034.09
2019-03-09T07:50:23.960Z,1034.03
2019-03-09T07:51:24.585Z,1034.09
2019-03-09T07:52:25.154Z,1034.11
2019-03-09T07:53:25.824Z,1034.07
2019-03-09T07:54:26.395Z,1034.12
2019-03-09T07:55:26.973Z,1034.15
2019-03-09T07:56:27.581Z,1034.17
2019-03-09T07:57:28.151Z,1034.14
2019-03-09T07:58:28.720Z,1034.20
2019-03-09T07:59:29.291Z,1034.21
2019-03-09T08:00:29.865Z,1034.18
2019-03-09T08:01:30.457Z,1034.27
2019-03-09T08:02:31.007Z,1034.24
2019-03-09T08:03:31.579Z,1034.23
2019-03-09T08:04:32.201Z,1034.28
2019-03-09T08:05:32.773Z,1034.34
2019-03-09T08:06:33.346Z,1034.27
2019-03-09T08:07:33.915Z,1034.30
2019-03-09T08:08:34.686Z,1034.26
2019-03-09T08:09:35.262Z,1034.37
2019-03-09T08:10:35.831Z,1034.34
2019-03-09T08:11:36.407Z,1034.28
2019-03-09T08:12:36.976Z,1034.35
2019-03-09T08:13:37.548Z,1034.35
2019-03-09T08:14:38.122Z,1034.41
2019-03-09T08:15:38.693Z,1034.39
2019-03-09T08:16:39.261Z,1034.33
2019-03-09T08:17:39.835Z,1034.44
2019-03-09T08:18:40.403Z,1034.42
2019-03-09T08:19:40.974Z,1034.37
2019-03-09T08:20:41.552Z,1034.37
2019-03-09T08:21:42.118Z,1034.37
2019-03-09T08:22:42.685Z,1034.38
2019-03-09T08:23:43.257Z,1034.46
2019-03-09T08:24:43.830Z,1034.45
2019-03-09T08:25:44.457Z,1034.44
2019-03-09T08:26:45.064Z,1034.45
2019-03-09T08:27:45.686Z,1034.45
2019-03-09T08:28:46.256Z,1034.46
2019-03-09T08:29:46.827Z,1034.39
2019-03-09T08:30:47.399Z,1034.46
2019-03-09T08:31:47.973Z,1034.58
2019-03-09T08:32:48.539Z,1034.55
2019-03-09T08:33:49.185Z,1034.51
2019-03-09T08:34:49.759Z,1034.55
2019-03-09T08:35:50.361Z,1034.54
2019-03-09T08:36:50.969Z,1034.57
2019-03-09T08:37:51.540Z,1034.56
2019-03-09T08:38:52.119Z,1034.55
2019-03-09T08:39:52.700Z,1034.64
2019-03-09T08:40:53.256Z,1034.51
2019-03-09T08:41:53.848Z,1034.64
2019-03-09T08:42:54.403Z,1034.56
2019-03-09T08:43:55.026Z,1034.54
2019-03-09T08:44:55.648Z,1034.53
2019-03-09T08:45:56.210Z,1034.52
2019-03-09T08:46:56.832Z,1034.59
2019-03-09T08:47:57.406Z,1034.56
2019-03-09T08:49:00.005Z,1034.52
2019-03-09T08:49:59.542Z,1034.59
2019-03-09T08:51:00.123Z,1034.62
2019-03-09T08:52:00.741Z,1034.67
2019-03-09T08:53:01.314Z,1034.59
2019-03-09T08:54:01.997Z,1034.65
2019-03-09T08:55:02.567Z,1034.56
2019-03-09T08:56:03.132Z,1034.59
2019-03-09T08:57:03.694Z,1034.62
2019-03-09T08:58:04.316Z,1034.60
2019-03-09T08:59:04.891Z,1034.64
2019-03-09T09:00:05.464Z,1034.60
2019-03-09T09:01:06.067Z,1034.56
2019-03-09T09:02:06.655Z,1034.61
2019-03-09T09:03:07.227Z,1034.56
2019-03-09T09:04:07.799Z,1034.63
2019-03-09T09:05:08.423Z,1034.63
2019-03-09T09:06:08.993Z,1034.64
2019-03-09T09:07:09.568Z,1034.64
2019-03-09T09:08:10.139Z,1034.65
2019-03-09T09:09:10.713Z,1034.68
2019-03-09T09:10:11.297Z,1034.64
2019-03-09T09:11:11.855Z,1034.60
2019-03-09T09:12:12.425Z,1034.62
2019-03-09T09:13:12.996Z,1034.74
2019-03-09T09:14:13.569Z,1034.72
2019-03-09T09:15:15.052Z,1034.70
2019-03-09T09:16:15.710Z,1034.71
2019-03-09T09:17:16.373Z,1034.69
2019-03-09T09:18:16.944Z,1034.69
2019-03-09T09:19:17.514Z,1034.62
2019-03-09T09:20:18.084Z,1034.64
2019-03-09T09:21:18.655Z,1034.73
2019-03-09T09:22:19.229Z,1034.74
2019-03-09T09:23:19.801Z,1034.65
2019-03-09T09:24:20.376Z,1034.62
2019-03-09T09:25:20.946Z,1034.63
2019-03-09T09:26:21.566Z,1034.70
2019-03-09T09:27:22.142Z,1034.59
2019-03-09T09:28:22.712Z,1034.58
2019-03-09T09:29:23.285Z,1034.64
2019-03-09T09:30:23.866Z,1034.64
2019-03-09T09:31:24.432Z,1034.67
2019-03-09T09:32:25.003Z,1034.74
2019-03-09T09:33:25.576Z,1034.62
2019-03-09T09:34:26.151Z,1034.72
2019-03-09T09:35:26.721Z,1034.67
2019-03-09T09:36:27.344Z,1034.79
2019-03-09T09:37:27.914Z,1034.70
2019-03-09T09:38:28.484Z,1034.73
2019-03-09T09:39:29.054Z,1034.73
2019-03-09T09:40:29.630Z,1034.74
2019-03-09T09:41:30.240Z,1034.75
2019-03-09T09:42:30.962Z,1034.76
2019-03-09T09:43:31.533Z,1034.69
2019-03-09T09:44:32.106Z,1034.66
2019-03-09T09:45:32.674Z,1034.69
2019-03-09T09:46:33.247Z,1034.70
2019-03-09T09:47:33.825Z,1034.68
2019-03-09T09:48:34.397Z,1034.67
2019-03-09T09:49:35.004Z,1034.71
2019-03-09T09:50:35.627Z,1034.71
2019-03-09T09:51:36.196Z,1034.70
2019-03-09T09:52:36.767Z,1034.70
2019-03-09T09:53:37.340Z,1034.64
2019-03-09T09:54:37.912Z,1034.77
2019-03-09T09:55:38.483Z,1034.71
2019-03-09T09:56:39.052Z,1034.75
2019-03-09T09:57:39.626Z,1034.71
2019-03-09T09:58:40.207Z,1034.70
2019-03-09T09:59:40.888Z,1034.72
2019-03-09T10:00:41.464Z,1034.70
2019-03-09T10:01:42.035Z,1034.75
2019-03-09T10:02:42.609Z,1034.67
2019-03-09T10:03:43.193Z,1034.73
2019-03-09T10:04:43.812Z,1034.74
2019-03-09T10:05:44.434Z,1034.68
2019-03-09T10:06:45.006Z,1034.71
2019-03-09T10:07:45.581Z,1034.71
2019-03-09T10:08:46.201Z,1034.67
2019-03-09T10:09:46.823Z,1034.68
2019-03-09T10:10:47.403Z,1034.61
2019-03-09T10:11:47.966Z,1034.59
2019-03-09T10:12:48.539Z,1034.61
2019-03-09T10:13:49.112Z,1034.65
2019-03-09T10:14:49.686Z,1034.61
2019-03-09T10:15:50.256Z,1034.72
2019-03-09T10:16:50.881Z,1034.70
2019-03-09T10:17:51.504Z,1034.69
2019-03-09T10:18:52.074Z,1034.63
2019-03-09T10:19:52.696Z,1034.71
2019-03-09T10:20:53.318Z,1034.66
2019-03-09T10:21:53.889Z,1034.66
2019-03-09T10:23:03.768Z,1034.60
2019-03-09T10:23:56.080Z,1034.63
2019-03-09T10:24:56.651Z,1034.65
2019-03-09T10:25:57.273Z,1034.57
2019-03-09T10:26:57.846Z,1034.58
2019-03-09T10:27:58.424Z,1034.55
2019-03-09T10:28:58.992Z,1034.54
2019-03-09T10:29:59.567Z,1034.53
2019-03-09T10:31:00.138Z,1034.49
2019-03-09T10:32:00.713Z,1034.54
2019-03-09T10:33:01.344Z,1034.55
2019-03-09T10:34:01.918Z,1034.55
2019-03-09T10:35:02.546Z,1034.56
2019-03-09T10:36:03.164Z,1034.56
2019-03-09T10:37:03.747Z,1034.49
2019-03-09T10:38:04.314Z,1034.52
2019-03-09T10:39:04.942Z,1034.54
2019-03-09T10:40:05.611Z,1034.47
2019-03-09T10:41:06.193Z,1034.49
2019-03-09T10:42:06.766Z,1034.50
2019-03-09T10:43:07.344Z,1034.54
2019-03-09T10:44:07.928Z,1034.60
2019-03-09T10:45:08.502Z,1034.56
2019-03-09T10:46:09.080Z,1034.57
2019-03-09T10:47:09.862Z,1034.59
2019-03-09T10:48:10.438Z,1034.59
2019-03-09T10:49:11.015Z,1034.58
2019-03-09T10:50:11.594Z,1034.57
2019-03-09T10:51:12.170Z,1034.63
2019-03-09T10:52:12.749Z,1034.54
2019-03-09T10:53:13.326Z,1034.60
2019-03-09T10:54:13.907Z,1034.60
2019-03-09T10:55:14.487Z,1034.60
2019-03-09T10:56:15.152Z,1034.71
2019-03-09T10:57:15.732Z,1034.67
2019-03-09T10:58:16.317Z,1034.62
2019-03-09T10:59:16.984Z,1034.64
2019-03-09T11:00:17.565Z,1034.60
2019-03-09T11:01:18.195Z,1034.62
2019-03-09T11:02:18.824Z,1034.68
2019-03-09T11:03:19.404Z,1034.71
2019-03-09T11:04:27.305Z,1034.69
2019-03-09T11:05:21.611Z,1034.70
2019-03-09T11:06:22.192Z,1034.67
2019-03-09T11:07:22.773Z,1034.71
2019-03-09T11:08:23.354Z,1034.65
2019-03-09T11:09:23.937Z,1034.61
2019-03-09T11:10:24.520Z,1034.67
2019-03-09T11:11:25.102Z,1034.64
2019-03-09T11:12:25.686Z,1034.59
2019-03-09T11:13:26.268Z,1034.61
2019-03-09T11:14:26.851Z,1034.69
2019-03-09T11:15:27.438Z,1034.67
2019-03-09T11:16:28.064Z,1034.69
2019-03-09T11:17:28.692Z,1034.66
2019-03-09T11:18:29.275Z,1034.63
2019-03-09T11:19:29.917Z,1034.71
2019-03-09T11:20:30.543Z,1034.74
2019-03-09T11:21:31.128Z,1034.66
2019-03-09T11:22:31.714Z,1034.71
2019-03-09T11:23:34.337Z,1034.71
2019-03-09T11:24:33.872Z,1034.71
2019-03-09T11:27:01.810Z,1034.73
2019-03-09T11:29:31.642Z,1034.78
2019-03-09T11:31:33.798Z,1034.81
2019-03-09T11:33:50.420Z,1034.80
2019-03-09T11:34:51.057Z,1034.85
2019-03-09T11:36:53.227Z,1034.84
2019-03-09T11:38:55.398Z,1034.79
2019-03-09T11:41:59.188Z,1034.80
2019-03-09T11:44:19.166Z,1034.88
2019-03-09T11:45:19.760Z,1034.90
2019-03-09T11:46:20.346Z,1034.94
2019-03-09T11:47:20.938Z,1034.93
2019-03-09T11:48:21.580Z,1034.91
2019-03-09T11:49:22.169Z,1034.97
2019-03-09T11:50:22.760Z,1034.92
2019-03-09T11:51:23.400Z,1034.98
2019-03-09T11:52:24.081Z,1034.95
2019-03-09T11:53:24.674Z,1035.00
2019-03-09T11:55:26.898Z,1034.97
2019-03-09T11:56:27.491Z,1035.00
2019-03-09T11:58:29.712Z,1034.97
2019-03-09T11:59:30.348Z,1035.02
2019-03-09T12:00:30.995Z,1034.96
2019-03-09T12:01:31.585Z,1035.04
2019-03-09T12:02:38.818Z,1034.97
2019-03-09T12:03:33.763Z,1034.92
2019-03-09T12:04:34.404Z,1034.91
2019-03-09T12:05:34.992Z,1035.06
2019-03-09T12:06:35.587Z,1034.94
2019-03-09T12:07:36.176Z,1034.96
2019-03-09T12:08:36.768Z,1034.94
2019-03-09T12:09:37.356Z,1034.94
2019-03-09T12:10:37.944Z,1034.91
2019-03-09T12:11:38.533Z,1034.83
2019-03-09T12:12:39.179Z,1034.90
2019-03-09T12:13:39.765Z,1034.83
2019-03-09T12:14:40.352Z,1034.87
2019-03-09T12:15:40.934Z,1034.91
2019-03-09T12:16:41.726Z,1034.81
2019-03-09T12:17:42.316Z,1034.79
2019-03-09T12:18:42.948Z,1034.77
2019-03-09T12:19:43.535Z,1034.81
2019-03-09T12:21:45.687Z,1034.83
2019-03-09T12:22:46.316Z,1034.79
2019-03-09T12:23:46.894Z,1034.87
2019-03-09T12:24:47.522Z,1034.77
2019-03-09T12:25:48.098Z,1034.87
2019-03-09T12:26:48.677Z,1034.80